Date,TemperatureHighF,TemperatureAvgF,TemperatureLowF,DewpointHighF,DewpointAvgF,DewpointLowF,HumidityHigh,HumidityAvg,HumidityLow,PressureMaxIn,PressureMinIn,WindSpeedMaxMPH,WindSpeedAvgMPH,GustSpeedMaxMPH,PrecipitationSumIn
2013-1-1,65,58,48,-100,-100,-100,0,0,100,0.00,40.00,0,-999,0,0.00
2013-1-2,48,45,42,-100,-100,-100,0,0,100,0.00,40.00,0,-999,0,0.00
2013-1-3,52,44,40,-100,-100,-100,0,0,100,0.00,40.00,0,-999,0,0.00
2013-1-4,55,47,39,-100,-100,-100,0,0,100,0.00,40.00,0,-999,0,0.00
2013-1-5,54,50,47,-100,-100,-100,0,0,100,0.00,40.00,0,-999,0,0.00
2013-1-6,56,49,46,-100,-100,-100,0,0,100,0.00,40.00,0,-999,0,0.00
2013-1-7,65,51,40,-100,-100,-100,0,0,100,0.00,40.00,0,-999,0,0.00
2013-1-8,65,58,51,-100,-100,-100,0,0,100,0.00,40.00,0,-999,0,0.00
2013-1-9,69,66,63,-100,-100,-100,0,0,100,0.00,40.00,0,-999,0,0.00
2013-1-10,71,67,65,-100,-100,-100,0,0,100,0.00,40.00,0,-999,0,0.00
2013-1-11,75,70,65,-100,-100,-100,0,0,100,0.00,40.00,0,-999,0,0.00
2013-1-12,81,75,73,-100,-100,-100,0,0,100,0.00,40.00,0,-999,0,0.00
2013-1-13,77,64,47,-100,-100,-100,0,0,100,0.00,40.00,0,-999,0,0.00
2013-1-14,47,44,38,-100,-100,-100,0,0,100,0.00,40.00,0,-999,0,0.00
2013-1-15,43,41,38,-100,-100,-100,0,0,100,0.00,40.00,0,-999,0,0.00
2013-1-16,40,38,36,-100,-100,-100,0,0,100,0.00,40.00,0,-999,0,0.00
2013-1-17,54,45,37,-100,-100,-100,0,0,100,0.00,40.00,0,-999,0,0.00
2013-1-18,68,49,40,-100,-100,-100,0,0,100,0.00,40.00,0,-999,0,0.00
2013-1-19,67,52,39,-100,-100,-100,0,0,100,0.00,40.00,0,-999,0,0.00
2013-1-20,71,53,41,-100,-100,-100,0,0,100,0.00,40.00,0,-999,0,0.00
2013-1-21,69,54,44,-100,-100,-100,0,0,100,0.00,40.00,0,-999,0,0.00
2013-1-22,69,55,45,-100,-100,-100,0,0,100,0.00,40.00,0,-999,0,0.00
2013-1-23,73,59,45,-100,-100,-100,0,0,100,0.00,40.00,0,-999,0,0.00
2013-1-24,75,62,52,-100,-100,-100,0,0,100,0.00,40.00,0,-999,0,0.00
2013-1-25,77,66,56,-100,-100,-100,0,0,100,0.00,40.00,0,-999,0,0.00
2013-1-26,80,66,59,-100,-100,-100,0,0,100,0.00,40.00,0,-999,0,0.00
2013-1-27,79,67,57,-100,-100,-100,0,0,100,0.00,40.00,0,-999,0,0.00
2013-1-28,79,69,62,-100,-100,-100,0,0,100,0.00,40.00,0,-999,0,0.00
2013-1-29,81,74,68,-100,-100,-100,0,0,100,0.00,40.00,0,-999,0,0.00
2013-1-30,75,59,46,-100,-100,-100,0,0,100,0.00,40.00,0,-999,0,0.00
2013-1-31,64,55,41,-100,-100,-100,0,0,100,0.00,40.00,0,-999,0,0.00
2013-2-1,69,55,47,-100,-100,-100,0,0,100,0.00,40.00,0,-999,0,0.00
2013-2-2,73,59,47,-100,-100,-100,0,0,100,0.00,40.00,0,-999,0,0.00
2013-2-3,69,59,50,-100,-100,-100,0,0,100,0.00,40.00,0,-999,0,0.00
2013-2-4,66,56,49,-100,-100,-100,0,0,100,0.00,40.00,0,-999,0,0.00
2013-2-5,74,64,59,-100,-100,-100,0,0,100,0.00,40.00,0,-999,0,0.00
2013-2-6,70,62,55,-100,-100,-100,0,0,100,0.00,40.00,0,-999,0,0.00
2013-2-7,72,63,59,-100,-100,-100,0,0,100,0.00,40.00,0,-999,0,0.00
2013-2-8,66,61,58,-100,-100,-100,0,0,100,0.00,40.00,0,-999,0,0.00
2013-2-9,69,61,54,-100,-100,-100,0,0,100,0.00,40.00,0,-999,0,0.00
2013-2-10,78,70,63,-100,-100,-100,0,0,100,0.00,40.00,0,-999,0,0.00
2013-2-11,69,60,55,-100,-100,-100,0,0,100,0.00,40.00,0,-999,0,0.00
2013-2-12,72,61,55,-100,-100,-100,0,0,100,0.00,40.00,0,-999,0,0.00
2013-2-13,57,53,47,-100,-100,-100,0,0,100,0.00,40.00,0,-999,0,0.00
2013-2-14,64,50,40,-100,-100,-100,0,0,100,0.00,40.00,0,-999,0,0.00
2013-2-15,66,54,41,-100,-100,-100,0,0,100,0.00,40.00,0,-999,0,0.00
2013-2-16,54,48,43,-100,-100,-100,0,0,100,0.00,40.00,0,-999,0,0.00
2013-2-17,68,51,37,-100,-100,-100,0,0,100,0.00,40.00,0,-999,0,0.00
2013-2-18,71,60,48,-100,-100,-100,0,0,100,0.00,40.00,0,-999,0,0.00
2013-2-19,65,59,51,-100,-100,-100,0,0,100,0.00,40.00,0,-999,0,0.00
2013-2-20,66,53,44,-100,-100,-100,0,0,100,0.00,40.00,0,-999,0,0.00
2013-2-21,73,65,55,-100,-100,-100,0,0,100,0.00,40.00,0,-999,0,0.00
2013-2-22,73,65,59,-100,-100,-100,0,0,100,0.00,40.00,0,-999,0,0.00
2013-2-23,65,58,52,-100,-100,-100,0,0,100,0.00,40.00,0,-999,0,0.00
2013-2-24,76,60,46,-100,-100,-100,0,0,100,0.00,40.00,0,-999,0,0.00
2013-2-25,69,65,57,-100,-100,-100,0,0,100,0.00,40.00,0,-999,0,0.00
2013-2-26,61,53,47,-100,-100,-100,0,0,100,0.00,40.00,0,-999,0,0.00
2013-2-27,70,58,47,-100,-100,-100,0,0,100,0.00,40.00,0,-999,0,0.00
2013-2-28,54,49,43,-100,-100,-100,0,0,100,0.00,40.00,0,-999,0,0.00
2013-3-1,58,49,41,-100,-100,-100,0,0,100,0.00,40.00,0,-999,0,0.00
2013-3-2,46,41,36,-100,-100,-100,0,0,100,0.00,40.00,0,-999,0,0.00
2013-3-3,62,45,32,-100,-100,-100,0,0,100,0.00,40.00,0,-999,0,0.00
2013-3-4,73,58,43,-100,-100,-100,0,0,100,0.00,40.00,0,-999,0,0.00
2013-3-5,73,66,54,-100,-100,-100,0,0,100,0.00,40.00,0,-999,0,0.00
2013-3-6,62,52,40,-100,-100,-100,0,0,100,0.00,40.00,0,-999,0,0.00
2013-3-7,69,53,40,-100,-100,-100,0,0,100,0.00,40.00,0,-999,0,0.00
2013-3-8,78,59,43,-100,-100,-100,0,0,100,0.00,40.00,0,-999,0,0.00
2013-3-9,75,64,55,-100,-100,-100,0,0,100,0.00,40.00,0,-999,0,0.00
2013-3-10,66,65,65,-100,-100,-100,0,0,100,0.00,40.00,0,-999,0,0.00
2013-3-11,58,55,51,-100,-100,-100,0,0,100,0.00,40.00,0,-999,0,0.00
2013-3-12,66,54,43,-100,-100,-100,0,0,100,0.00,40.00,0,-999,0,0.00
2013-3-13,65,56,45,-100,-100,-100,0,0,100,0.00,40.00,0,-999,0,0.00
2013-3-14,82,58,43,-100,-100,-100,0,0,100,0.00,40.00,0,-999,0,0.00
2013-3-15,77,62,47,-100,-100,-100,0,0,100,0.00,40.00,0,-999,0,0.00
2013-3-16,80,66,54,-100,-100,-100,0,0,100,0.00,40.00,0,-999,0,0.00
2013-3-17,80,70,61,-100,-100,-100,0,0,100,0.00,40.00,0,-999,0,0.00
2013-3-18,87,76,71,-100,-100,-100,0,0,100,0.00,40.00,0,-999,0,0.00
2013-3-19,84,69,55,-100,-100,-100,0,0,100,0.00,40.00,0,-999,0,0.00
2013-3-20,71,62,53,-100,-100,-100,0,0,100,0.00,40.00,0,-999,0,0.00
2013-3-21,73,60,50,-100,-100,-100,0,0,100,0.00,40.00,0,-999,0,0.00
2013-3-22,83,69,58,-100,-100,-100,0,0,100,0.00,40.00,0,-999,0,0.00
2013-3-23,74,72,70,-100,-100,-100,0,0,100,0.00,40.00,0,-999,0,0.00
2013-3-24,70,60,50,-100,-100,-100,0,0,100,0.00,40.00,0,-999,0,0.00
2013-3-25,59,49,39,-100,-100,-100,0,0,100,0.00,40.00,0,-999,0,0.00
2013-3-26,55,47,37,-100,-100,-100,0,0,100,0.00,40.00,0,-999,0,0.00
2013-3-27,70,52,36,-100,-100,-100,0,0,100,0.00,40.00,0,-999,0,0.00
2013-3-28,76,58,41,-100,-100,-100,0,0,100,0.00,40.00,0,-999,0,0.00
2013-3-29,79,64,48,-100,-100,-100,0,0,100,0.00,40.00,0,-999,0,0.00
2013-3-30,78,67,58,-100,-100,-100,0,0,100,0.00,40.00,0,-999,0,0.00
2013-3-31,79,66,60,-100,-100,-100,0,0,100,0.00,40.00,0,-999,0,0.00
2013-4-1,82,66,58,-100,-100,-100,0,0,100,0.00,40.00,0,-999,0,0.00
2013-4-2,83,69,56,-100,-100,-100,0,0,100,0.00,40.00,0,-999,0,0.00
2013-4-3,68,62,54,-100,-100,-100,0,0,100,0.00,40.00,0,-999,0,0.00
2013-4-4,55,52,48,-100,-100,-100,0,0,100,0.00,40.00,0,-999,0,0.00
2013-4-5,69,57,48,-100,-100,-100,0,0,100,0.00,40.00,0,-999,0,0.00
2013-4-6,76,63,50,-100,-100,-100,0,0,100,0.00,40.00,0,-999,0,0.00
2013-4-7,82,71,62,-100,-100,-100,0,0,100,0.00,40.00,0,-999,0,0.00
2013-4-8,86,74,62,-100,-100,-100,0,0,100,0.00,40.00,0,-999,0,0.00
2013-4-9,87,78,71,-100,-100,-100,0,0,100,0.00,40.00,0,-999,0,0.00
2013-4-10,87,79,75,-100,-100,-100,0,0,100,0.00,40.00,0,-999,0,0.00
2013-4-11,76,66,54,-100,-100,-100,0,0,100,0.00,40.00,0,-999,0,0.00
2013-4-12,77,62,50,-100,-100,-100,0,0,100,0.00,40.00,0,-999,0,0.00
2013-4-13,84,69,54,-100,-100,-100,0,0,100,0.00,40.00,0,-999,0,0.00
2013-4-14,83,69,59,-100,-100,-100,0,0,100,0.00,40.00,0,-999,0,0.00
2013-4-15,84,76,69,-100,-100,-100,0,0,100,0.00,40.00,0,-999,0,0.00
2013-4-16,88,80,75,-100,-100,-100,0,0,100,0.00,40.00,0,-999,0,0.00
2013-4-17,91,81,76,-100,-100,-100,0,0,100,0.00,40.00,0,-999,0,0.00
2013-4-18,87,78,58,-100,-100,-100,0,0,100,0.00,40.00,0,-999,0,0.00
2013-4-19,61,54,48,-100,-100,-100,0,0,100,0.00,40.00,0,-999,0,0.00
2013-4-20,80,59,46,-100,-100,-100,0,0,100,0.00,40.00,0,-999,0,0.00
2013-4-21,83,65,51,-100,-100,-100,0,0,100,0.00,40.00,0,-999,0,0.00
2013-4-22,88,70,54,-100,-100,-100,0,0,100,0.00,40.00,0,-999,0,0.00
2013-4-23,88,76,69,-100,-100,-100,0,0,100,0.00,40.00,0,-999,0,0.00
2013-4-24,74,66,58,-100,-100,-100,0,0,100,0.00,40.00,0,-999,0,0.00
2013-4-25,76,64,54,-100,-100,-100,0,0,100,0.00,40.00,0,-999,0,0.00
2013-4-26,83,71,58,-100,-100,-100,0,0,100,0.00,40.00,0,-999,0,0.00
2013-4-27,85,76,69,-100,-100,-100,0,0,100,0.00,40.00,0,-999,0,0.00
2013-4-28,86,74,69,-100,-100,-100,0,0,100,0.00,40.00,0,-999,0,0.00
2013-4-29,91,75,62,-100,-100,-100,0,0,100,0.00,40.00,0,-999,0,0.00
2013-4-30,79,73,68,-100,-100,-100,0,0,100,0.00,40.00,0,-999,0,0.00
2013-5-1,85,73,69,-100,-100,-100,0,0,100,0.00,40.00,0,-999,0,0.00
2013-5-2,77,71,66,-100,-100,-100,0,0,100,0.00,40.00,0,-999,0,0.00
2013-5-3,69,56,51,-100,-100,-100,0,0,100,0.00,40.00,0,-999,0,0.00
2013-5-4,76,61,47,-100,-100,-100,0,0,100,0.00,40.00,0,-999,0,0.00
2013-5-5,65,58,51,-100,-100,-100,0,0,100,0.00,40.00,0,-999,0,0.00
2013-5-6,78,64,51,-100,-100,-100,0,0,100,0.00,40.00,0,-999,0,0.00
2013-5-7,83,70,59,-100,-100,-100,0,0,100,0.00,40.00,0,-999,0,0.00
2013-5-8,87,74,62,-100,-100,-100,0,0,100,0.00,40.00,0,-999,0,0.00
2013-5-9,86,76,65,-100,-100,-100,0,0,100,0.00,40.00,0,-999,0,0.00
2013-5-10,76,70,66,-100,-100,-100,0,0,100,0.00,40.00,0,-999,0,0.00
2013-5-11,81,73,65,-100,-100,-100,0,0,100,0.00,40.00,0,-999,0,0.00
2013-5-12,80,71,62,-100,-100,-100,0,0,100,0.00,40.00,0,-999,0,0.00
2013-5-13,92,72,54,-100,-100,-100,0,0,100,0.00,40.00,0,-999,0,0.00
2013-5-14,90,74,61,-100,-100,-100,0,0,100,0.00,40.00,0,-999,0,0.00
2013-5-15,87,73,62,-100,-100,-100,0,0,100,0.00,40.00,0,-999,0,0.00
2013-5-16,88,76,67,-100,-100,-100,0,0,100,0.00,40.00,0,-999,0,0.00
2013-5-17,91,79,73,-100,-100,-100,0,0,100,0.00,40.00,0,-999,0,0.00
2013-5-18,93,82,76,-100,-100,-100,0,0,100,0.00,40.00,0,-999,0,0.00
2013-5-19,93,82,76,-100,-100,-100,0,0,100,0.00,40.00,0,-999,0,0.00
2013-5-20,91,81,76,-100,-100,-100,0,0,100,0.00,40.00,0,-999,0,0.00
2013-6-6,91,82,75,-100,-100,-100,0,0,100,0.00,40.00,0,-999,0,0.00
2013-6-7,90,79,73,-100,-100,-100,0,0,100,0.00,40.00,0,-999,0,0.00
2013-6-8,96,79,73,-100,-100,-100,0,0,100,0.00,40.00,0,-999,0,0.00
2013-6-9,96,79,73,-100,-100,-100,0,0,100,0.00,40.00,0,-999,0,0.00
2013-6-10,93,83,75,-100,-100,-100,0,0,100,0.00,40.00,0,-999,0,0.00
2013-6-11,98,86,78,-100,-100,-100,0,0,100,0.00,40.00,0,-999,0,0.00
2013-6-12,98,86,77,-100,-100,-100,0,0,100,0.00,40.00,0,-999,0,0.00
2013-6-13,96,86,76,-100,-100,-100,0,0,100,0.00,40.00,0,-999,0,0.00
2013-6-14,97,87,80,-100,-100,-100,0,0,100,0.00,40.00,0,-999,0,0.00
2013-6-15,101,86,75,-100,-100,-100,0,0,100,0.00,40.00,0,-999,0,0.00
2013-6-16,96,87,80,-100,-100,-100,0,0,100,0.00,40.00,0,-999,0,0.00
2013-6-17,94,85,77,-100,-100,-100,0,0,100,0.00,40.00,0,-999,0,0.00
2013-6-18,95,85,77,-100,-100,-100,0,0,100,0.00,40.00,0,-999,0,0.00
2013-6-19,90,80,73,-100,-100,-100,0,0,100,0.00,40.00,0,-999,0,0.00
2013-6-20,88,80,77,-100,-100,-100,0,0,100,0.00,40.00,0,-999,0,0.00
2013-6-22,94,89,80,-100,-100,-100,0,0,100,0.00,40.00,0,-999,0,0.00
2013-6-23,96,83,76,-100,-100,-100,0,0,100,0.00,40.00,0,-999,0,0.00
2013-6-24,94,85,78,-100,-100,-100,0,0,100,0.00,40.00,0,-999,0,0.00
2013-6-25,97,84,76,-100,-100,-100,0,0,100,0.00,40.00,0,-999,0,0.00
2013-6-26,99,87,76,-100,-100,-100,0,0,100,0.00,40.00,0,-999,0,0.00
2013-6-27,98,86,77,-100,-100,-100,0,0,100,0.00,40.00,0,-999,0,0.00
2013-6-28,97,87,80,-100,-100,-100,0,0,100,0.00,40.00,0,-999,0,0.00
2013-6-29,91,83,75,-100,-100,-100,0,0,100,0.00,40.00,0,-999,0,0.00
2013-6-30,91,84,76,-100,-100,-100,0,0,100,0.00,40.00,0,-999,0,0.00
2013-7-1,87,80,71,-100,-100,-100,0,0,100,0.00,40.00,0,-999,0,0.00
2013-7-2,91,80,71,-100,-100,-100,0,0,100,0.00,40.00,0,-999,0,0.00
2013-7-3,91,79,73,-100,-100,-100,0,0,100,0.00,40.00,0,-999,0,0.00
2013-7-4,95,82,73,-100,-100,-100,0,0,100,0.00,40.00,0,-999,0,0.00
2013-7-5,93,82,76,-100,-100,-100,0,0,100,0.00,40.00,0,-999,0,0.00
2013-7-6,91,78,74,-100,-100,-100,0,0,100,0.00,40.00,0,-999,0,0.00
2013-7-7,91,81,77,-100,-100,-100,0,0,100,0.00,40.00,0,-999,0,0.00
2013-7-8,95,82,75,-100,-100,-100,0,0,100,0.00,40.00,0,-999,0,0.00
2013-7-9,98,84,76,-100,-100,-100,0,0,100,0.00,40.00,0,-999,0,0.00
2013-7-10,98,87,79,-100,-100,-100,0,0,100,0.00,40.00,0,-999,0,0.00
2013-7-11,91,82,76,-100,-100,-100,0,0,100,0.00,40.00,0,-999,0,0.00
2013-7-12,94,84,75,-100,-100,-100,0,0,100,0.00,40.00,0,-999,0,0.00
2013-7-13,93,82,73,-100,-100,-100,0,0,100,0.00,40.00,0,-999,0,0.00
2013-7-14,95,80,73,-100,-100,-100,0,0,100,0.00,40.00,0,-999,0,0.00
2013-7-15,91,79,76,-100,-100,-100,0,0,100,0.00,40.00,0,-999,0,0.00
2013-7-16,88,82,76,-100,-100,-100,0,0,100,0.00,40.00,0,-999,0,0.00
2013-7-17,98,84,77,-100,-100,-100,0,0,100,0.00,40.00,0,-999,0,0.00
2013-7-18,94,82,76,-100,-100,-100,0,0,100,0.00,40.00,0,-999,0,0.00
2013-7-19,91,82,75,-100,-100,-100,0,0,100,0.00,40.00,0,-999,0,0.00
2013-7-20,96,83,75,-100,-100,-100,0,0,100,0.00,40.00,0,-999,0,0.00
2013-7-21,89,82,76,-100,-100,-100,0,0,100,0.00,40.00,0,-999,0,0.00
2013-7-22,91,84,77,-100,-100,-100,0,0,100,0.00,40.00,0,-999,0,0.00
2013-7-23,94,85,79,-100,-100,-100,0,0,100,0.00,40.00,0,-999,0,0.00
2013-7-24,95,86,78,-100,-100,-100,0,0,100,0.00,40.00,0,-999,0,0.00
2013-7-25,94,84,76,-100,-100,-100,0,0,100,0.00,40.00,0,-999,0,0.00
2013-7-26,98,83,75,-100,-100,-100,0,0,100,0.00,40.00,0,-999,0,0.00
2013-7-27,86,81,76,-100,-100,-100,0,0,100,0.00,40.00,0,-999,0,0.00
2013-7-28,98,84,76,-100,-100,-100,0,0,100,0.00,40.00,0,-999,0,0.00
2013-7-29,97,85,76,-100,-100,-100,0,0,100,0.00,40.00,0,-999,0,0.00
2013-7-30,97,87,78,-100,-100,-100,0,0,100,0.00,40.00,0,-999,0,0.00
2013-7-31,98,87,79,-100,-100,-100,0,0,100,0.00,40.00,0,-999,0,0.00
2013-8-1,98,88,78,-100,-100,-100,0,0,100,0.00,40.00,0,-999,0,0.00
2013-8-2,99,87,79,-100,-100,-100,0,0,100,0.00,40.00,0,-999,0,0.00
2013-8-3,98,88,79,-100,-100,-100,0,0,100,0.00,40.00,0,-999,0,0.00
2013-8-4,101,86,79,-100,-100,-100,0,0,100,0.00,40.00,0,-999,0,0.00
2013-8-5,98,86,79,-100,-100,-100,0,0,100,0.00,40.00,0,-999,0,0.00
2013-8-6,101,88,79,-100,-100,-100,0,0,100,0.00,40.00,0,-999,0,0.00
2013-8-7,102,88,79,-100,-100,-100,0,0,100,0.00,40.00,0,-999,0,0.00
2013-8-8,102,88,78,-100,-100,-100,0,0,100,0.00,40.00,0,-999,0,0.00
2013-8-9,96,86,81,-100,-100,-100,0,0,100,0.00,40.00,0,-999,0,0.00
2013-8-10,99,85,79,-100,-100,-100,0,0,100,0.00,40.00,0,-999,0,0.00
2013-8-11,94,83,77,-100,-100,-100,0,0,100,0.00,40.00,0,-999,0,0.00
2013-8-12,94,84,77,-100,-100,-100,0,0,100,0.00,40.00,0,-999,0,0.00
2013-8-13,94,83,75,-100,-100,-100,0,0,100,0.00,40.00,0,-999,0,0.00
2013-8-14,83,79,75,-100,-100,-100,0,0,100,0.00,40.00,0,-999,0,0.00
2013-8-15,88,80,74,-100,-100,-100,0,0,100,0.00,40.00,0,-999,0,0.00
2013-8-16,91,81,73,-100,-100,-100,0,0,100,0.00,40.00,0,-999,0,0.00
2013-8-17,90,80,72,-100,-100,-100,0,0,100,0.00,40.00,0,-999,0,0.00
2013-8-18,91,80,72,-100,-100,-100,0,0,100,0.00,40.00,0,-999,0,0.00
2013-8-19,91,81,75,-100,-100,-100,0,0,100,0.00,40.00,0,-999,0,0.00
2013-8-20,93,81,76,-100,-100,-100,0,0,100,0.00,40.00,0,-999,0,0.00
2013-8-21,95,82,75,-100,-100,-100,0,0,100,0.00,40.00,0,-999,0,0.00
2013-8-22,94,84,77,-100,-100,-100,0,0,100,0.00,40.00,0,-999,0,0.00
2013-8-23,95,84,76,-100,-100,-100,0,0,100,0.00,40.00,0,-999,0,0.00
2013-8-24,89,81,76,-100,-100,-100,0,0,100,0.00,40.00,0,-999,0,0.00
2013-8-25,90,80,74,-100,-100,-100,0,0,100,0.00,40.00,0,-999,0,0.00
2013-8-26,91,81,76,-100,-100,-100,0,0,100,0.00,40.00,0,-999,0,0.00
2013-8-27,91,79,73,-100,-100,-100,0,0,100,0.00,40.00,0,-999,0,0.00
2013-8-28,95,87,76,-100,-100,-100,0,0,100,0.00,40.00,0,-999,0,0.00
2013-8-29,97,82,70,-100,-100,-100,0,0,100,0.00,40.00,0,-999,0,0.00
2013-8-30,97,83,73,-100,-100,-100,0,0,100,0.00,40.00,0,-999,0,0.00
2013-8-31,97,84,73,-100,-100,-100,0,0,100,0.00,40.00,0,-999,0,0.00
2013-9-1,100,86,76,-100,-100,-100,0,0,100,0.00,40.00,0,-999,0,0.00
2013-9-2,100,87,76,-100,-100,-100,0,0,100,0.00,40.00,0,-999,0,0.00
2013-9-3,98,85,78,-100,-100,-100,0,0,100,0.00,40.00,0,-999,0,0.00
2013-9-4,97,83,76,-100,-100,-100,0,0,100,0.00,40.00,0,-999,0,0.00
2013-9-5,99,83,76,-100,-100,-100,0,0,100,0.00,40.00,0,-999,0,0.00
2013-9-6,99,84,76,-100,-100,-100,0,0,100,0.00,40.00,0,-999,0,0.00
2013-9-7,98,82,75,-100,-100,-100,0,0,100,0.00,40.00,0,-999,0,0.00
2013-9-8,98,81,73,-100,-100,-100,0,0,100,0.00,40.00,0,-999,0,0.00
2013-9-9,97,83,72,-100,-100,-100,0,0,100,0.00,40.00,0,-999,0,0.00
2013-9-10,96,82,73,-100,-100,-100,0,0,100,0.00,40.00,0,-999,0,0.00
2013-9-11,96,84,76,-100,-100,-100,0,0,100,0.00,40.00,0,-999,0,0.00
2013-9-12,99,84,73,-100,-100,-100,0,0,100,0.00,40.00,0,-999,0,0.00
2013-9-13,98,84,74,-100,-100,-100,0,0,100,0.00,40.00,0,-999,0,0.00
2013-9-14,95,83,76,-100,-100,-100,0,0,100,0.00,40.00,0,-999,0,0.00
2013-9-15,98,81,74,-100,-100,-100,0,0,100,0.00,40.00,0,-999,0,0.00
2013-9-16,96,83,75,-100,-100,-100,0,0,100,0.00,40.00,0,-999,0,0.00
2013-9-17,98,84,74,-100,-100,-100,0,0,100,0.00,40.00,0,-999,0,0.00
2013-9-18,83,78,76,-100,-100,-100,0,0,100,0.00,40.00,0,-999,0,0.00
2013-9-19,94,82,76,-100,-100,-100,0,0,100,0.00,40.00,0,-999,0,0.00
2013-9-20,93,83,79,-100,-100,-100,0,0,100,0.00,40.00,0,-999,0,0.00
2013-9-21,82,76,71,-100,-100,-100,0,0,100,0.00,40.00,0,-999,0,0.00
2013-9-22,88,77,70,-100,-100,-100,0,0,100,0.00,40.00,0,-999,0,0.00
2013-9-23,93,79,67,-100,-100,-100,0,0,100,0.00,40.00,0,-999,0,0.00
2013-9-24,91,83,77,-100,-100,-100,0,0,100,0.00,40.00,0,-999,0,0.00
2013-9-25,92,79,70,-100,-100,-100,0,0,100,0.00,40.00,0,-999,0,0.00
2013-9-26,94,78,65,-100,-100,-100,0,0,100,0.00,40.00,0,-999,0,0.00
2013-9-27,91,78,69,-100,-100,-100,0,0,100,0.00,40.00,0,-999,0,0.00
2013-9-28,94,80,71,-100,-100,-100,0,0,100,0.00,40.00,0,-999,0,0.00
2013-9-29,88,78,72,-100,-100,-100,0,0,100,0.00,40.00,0,-999,0,0.00
2013-9-30,89,78,74,-100,-100,-100,0,0,100,0.00,40.00,0,-999,0,0.00
2013-10-1,77,76,76,-100,-100,-100,0,0,100,0.00,40.00,0,-999,0,0.00
2013-10-2,90,79,75,-100,-100,-100,0,0,100,0.00,40.00,0,-999,0,0.00
2013-10-3,91,81,75,-100,-100,-100,0,0,100,0.00,40.00,0,-999,0,0.00
2013-10-4,91,81,76,-100,-100,-100,0,0,100,0.00,40.00,0,-999,0,0.00
2013-10-5,87,80,76,-100,-100,-100,0,0,100,0.00,40.00,0,-999,0,0.00
2013-10-6,78,73,61,-100,-100,-100,0,0,100,0.00,40.00,0,-999,0,0.00
2013-10-7,76,66,57,-100,-100,-100,0,0,100,0.00,40.00,0,-999,0,0.00
2013-10-8,79,66,56,-100,-100,-100,0,0,100,0.00,40.00,0,-999,0,0.00
2013-10-9,87,70,55,-100,-100,-100,0,0,100,0.00,40.00,0,-999,0,0.00
2013-10-10,87,71,64,-100,-100,-100,0,0,100,0.00,40.00,0,-999,0,0.00
2013-10-11,89,74,62,-100,-100,-100,0,0,100,0.00,40.00,0,-999,0,0.00
2013-10-12,95,78,69,-100,-100,-100,0,0,100,0.00,40.00,0,-999,0,0.00
2013-10-13,91,79,73,-100,-100,-100,0,0,100,0.00,40.00,0,-999,0,0.00
2013-10-14,90,78,71,-100,-100,-100,0,0,100,0.00,40.00,0,-999,0,0.00
2013-10-15,90,78,68,-100,-100,-100,0,0,100,0.00,40.00,0,-999,0,0.00
2013-10-16,87,78,73,-100,-100,-100,0,0,100,0.00,40.00,0,-999,0,0.00
2013-10-17,76,68,63,-100,-100,-100,0,0,100,0.00,40.00,0,-999,0,0.00
2013-10-18,77,67,58,-100,-100,-100,0,0,100,0.00,40.00,0,-999,0,0.00
2013-10-19,74,67,61,-100,-100,-100,0,0,100,0.00,40.00,0,-999,0,0.00
2013-10-20,78,62,53,-100,-100,-100,0,0,100,0.00,40.00,0,-999,0,0.00
2013-10-21,76,66,57,-100,-100,-100,0,0,100,0.00,40.00,0,-999,0,0.00
2013-10-22,75,67,59,-100,-100,-100,0,0,100,0.00,40.00,0,-999,0,0.00
2013-10-23,77,64,54,-100,-100,-100,0,0,100,0.00,40.00,0,-999,0,0.00
2013-10-24,83,66,52,-100,-100,-100,0,0,100,0.00,40.00,0,-999,0,0.00
2013-10-25,74,62,55,-100,-100,-100,0,0,100,0.00,40.00,0,-999,0,0.00
2013-10-26,80,61,48,-100,-100,-100,0,0,100,0.00,40.00,0,-999,0,0.00
2013-10-27,78,65,54,-100,-100,-100,0,0,100,0.00,40.00,0,-999,0,0.00
2013-10-28,87,74,65,-100,-100,-100,0,0,100,0.00,40.00,0,-999,0,0.00
2013-10-29,86,74,65,-100,-100,-100,0,0,100,0.00,40.00,0,-999,0,0.00
2013-10-30,84,74,66,-100,-100,-100,0,0,100,0.00,40.00,0,-999,0,0.00
2013-10-31,80,73,66,-100,-100,-100,0,0,100,0.00,40.00,0,-999,0,0.00
2013-11-1,76,66,59,-100,-100,-100,0,0,100,0.00,40.00,0,-999,0,0.00
2013-11-2,71,63,56,-100,-100,-100,0,0,100,0.00,40.00,0,-999,0,0.00
2013-11-3,71,57,46,-100,-100,-100,0,0,100,0.00,40.00,0,-999,0,0.00
2013-11-4,80,64,51,-100,-100,-100,0,0,100,0.00,40.00,0,-999,0,0.00
2013-11-5,78,70,62,-100,-100,-100,0,0,100,0.00,40.00,0,-999,0,0.00
2013-11-6,85,73,65,-100,-100,-100,0,0,100,0.00,40.00,0,-999,0,0.00
2013-11-7,69,58,51,-100,-100,-100,0,0,100,0.00,40.00,0,-999,0,0.00
2013-11-8,69,56,46,-100,-100,-100,0,0,100,0.00,40.00,0,-999,0,0.00
2013-11-9,76,60,48,-100,-100,-100,0,0,100,0.00,40.00,0,-999,0,0.00
2013-11-10,77,65,57,-100,-100,-100,0,0,100,0.00,40.00,0,-999,0,0.00
2013-11-11,77,63,51,-100,-100,-100,0,0,100,0.00,40.00,0,-999,0,0.00
2013-11-12,71,55,42,-100,-100,-100,0,0,100,0.00,40.00,0,-999,0,0.00
2013-11-13,61,45,35,-100,-100,-100,0,0,100,0.00,40.00,0,-999,0,0.00
2013-11-14,70,53,36,-100,-100,-100,0,0,100,0.00,40.00,0,-999,0,0.00
2013-11-15,81,66,57,-100,-100,-100,0,0,100,0.00,40.00,0,-999,0,0.00
2013-11-16,85,74,67,-100,-100,-100,0,0,100,0.00,40.00,0,-999,0,0.00
2013-11-17,83,76,73,-100,-100,-100,0,0,100,0.00,40.00,0,-999,0,0.00
2013-11-18,80,73,61,-100,-100,-100,0,0,100,0.00,40.00,0,-999,0,0.00
2013-11-19,70,58,50,-100,-100,-100,0,0,100,0.00,40.00,0,-999,0,0.00
2013-11-20,76,57,44,-100,-100,-100,0,0,100,0.00,40.00,0,-999,0,0.00
2013-11-21,75,67,56,-100,-100,-100,0,0,100,0.00,40.00,0,-999,0,0.00
2013-11-22,76,70,67,-100,-100,-100,0,0,100,0.00,40.00,0,-999,0,0.00
2013-11-23,66,55,48,-100,-100,-100,0,0,100,0.00,40.00,0,-999,0,0.00
2013-11-24,57,47,40,-100,-100,-100,0,0,100,0.00,40.00,0,-999,0,0.00
2013-11-25,47,45,43,-100,-100,-100,0,0,100,0.00,40.00,0,-999,0,0.00
2013-11-26,49,43,41,-100,-100,-100,0,0,100,0.00,40.00,0,-999,0,0.00
2013-11-27,46,40,36,-100,-100,-100,0,0,100,0.00,40.00,0,-999,0,0.00
2013-11-28,51,39,30,-100,-100,-100,0,0,100,0.00,40.00,0,-999,0,0.00
2013-11-29,63,43,31,-100,-100,-100,0,0,100,0.00,40.00,0,-999,0,0.00
2013-11-30,69,49,33,-100,-100,-100,0,0,100,0.00,40.00,0,-999,0,0.00
2013-12-1,75,56,39,-100,-100,-100,0,0,100,0.00,40.00,0,-999,0,0.00
2013-12-2,76,66,58,-100,-100,-100,0,0,100,0.00,40.00,0,-999,0,0.00
2013-12-3,80,71,62,-100,-100,-100,0,0,100,0.00,40.00,0,-999,0,0.00
2013-12-4,81,76,72,-100,-100,-100,0,0,100,0.00,40.00,0,-999,0,0.00
2013-12-5,83,78,73,-100,-100,-100,0,0,100,0.00,40.00,0,-999,0,0.00
2013-12-6,62,48,40,-100,-100,-100,0,0,100,0.00,40.00,0,-999,0,0.00
2013-12-7,40,38,36,-100,-100,-100,0,0,100,0.00,40.00,0,-999,0,0.00
2013-12-8,45,41,37,-100,-100,-100,0,0,100,0.00,40.00,0,-999,0,0.00
2013-12-9,50,47,40,-100,-100,-100,0,0,100,0.00,40.00,0,-999,0,0.00
2013-12-10,51,42,36,-100,-100,-100,0,0,100,0.00,40.00,0,-999,0,0.00
2013-12-11,51,44,36,-100,-100,-100,0,0,100,0.00,40.00,0,-999,0,0.00
2013-12-12,58,46,38,-100,-100,-100,0,0,100,0.00,40.00,0,-999,0,0.00
2013-12-13,63,51,39,-100,-100,-100,0,0,100,0.00,40.00,0,-999,0,0.00
2013-12-14,69,61,49,-100,-100,-100,0,0,100,0.00,40.00,0,-999,0,0.00
2013-12-15,51,46,39,-100,-100,-100,0,0,100,0.00,40.00,0,-999,0,0.00
2013-12-16,63,45,33,-100,-100,-100,0,0,100,0.00,40.00,0,-999,0,0.00
2013-12-17,69,49,35,-100,-100,-100,0,0,100,0.00,40.00,0,-999,0,0.00
2013-12-18,73,52,39,-100,-100,-100,0,0,100,0.00,40.00,0,-999,0,0.00
2013-12-19,75,62,47,-100,-100,-100,0,0,100,0.00,40.00,0,-999,0,0.00
2013-12-20,81,72,65,-100,-100,-100,0,0,100,0.00,40.00,0,-999,0,0.00
2013-12-21,80,74,63,-100,-100,-100,0,0,100,0.00,40.00,0,-999,0,0.00
2013-12-22,69,63,51,-100,-100,-100,0,0,100,0.00,40.00,0,-999,0,0.00
2013-12-23,49,43,37,-100,-100,-100,0,0,100,0.00,40.00,0,-999,0,0.00
2013-12-24,54,41,30,-100,-100,-100,0,0,100,0.00,40.00,0,-999,0,0.00
2013-12-25,51,42,32,-100,-100,-100,0,0,100,0.00,40.00,0,-999,0,0.00
2013-12-26,61,48,36,-100,-100,-100,0,0,100,0.00,40.00,0,-999,0,0.00
2013-12-27,58,51,46,-100,-100,-100,0,0,100,0.00,40.00,0,-999,0,0.00
2013-12-28,52,49,47,-100,-100,-100,0,0,100,0.00,40.00,0,-999,0,0.00
2013-12-29,62,51,44,-100,-100,-100,0,0,100,0.00,40.00,0,-999,0,0.00
2013-12-30,54,49,44,-100,-100,-100,0,0,100,0.00,40.00,0,-999,0,0.00
2013-12-31,49,46,41,-100,-100,-100,0,0,100,0.00,40.00,0,-999,0,0.00
2014-1-1,62,54,47,-100,-100,-100,0,0,100,0.00,40.00,0,-999,0,0.00
2014-1-2,59,51,39,-100,-100,-100,0,0,100,0.00,40.00,0,-999,0,0.00